createdAt,value
2018-05-12T00:00:37.871Z,0
2018-05-12T00:01:39.244Z,0
2018-05-12T00:02:40.609Z,0
2018-05-12T00:03:41.983Z,0
2018-05-12T00:04:43.339Z,0
2018-05-12T00:05:44.729Z,0
2018-05-12T00:06:46.093Z,0
2018-05-12T00:07:47.456Z,0
2018-05-12T00:08:48.818Z,0
2018-05-12T00:09:50.234Z,0
2018-05-12T00:10:51.603Z,0
2018-05-12T00:11:52.973Z,0
2018-05-12T00:12:54.343Z,0
2018-05-12T00:13:55.731Z,0
2018-05-12T00:14:57.165Z,0
2018-05-12T00:15:58.462Z,0
2018-05-12T00:16:59.827Z,0
2018-05-12T00:18:01.196Z,0
2018-05-12T00:19:02.567Z,0
2018-05-12T00:20:03.939Z,0
2018-05-12T00:21:05.327Z,0
2018-05-12T00:22:06.705Z,0
2018-05-12T00:23:08.073Z,0
2018-05-12T00:24:09.437Z,0
2018-05-12T00:25:10.809Z,0
2018-05-12T00:26:12.402Z,0
2018-05-12T00:27:13.769Z,0
2018-05-12T00:28:15.145Z,0
2018-05-12T00:29:16.518Z,0
2018-05-12T00:30:17.883Z,0
2018-05-12T00:31:19.273Z,0
2018-05-12T00:32:20.632Z,0
2018-05-12T00:33:22.002Z,0
2018-05-12T00:34:23.375Z,0
2018-05-12T00:35:24.729Z,0
2018-05-12T00:36:26.100Z,0
2018-05-12T00:37:27.463Z,0
2018-05-12T00:38:28.828Z,0
2018-05-12T00:39:30.200Z,0
2018-05-12T00:40:31.559Z,0
2018-05-12T00:41:32.936Z,0
2018-05-12T00:42:34.290Z,0
2018-05-12T00:43:35.662Z,0
2018-05-12T00:44:37.035Z,0
2018-05-12T00:45:38.409Z,0
2018-05-12T00:46:39.781Z,0
2018-05-12T00:47:41.150Z,0
2018-05-12T00:48:42.527Z,0
2018-05-12T00:49:43.885Z,0
2018-05-12T00:50:45.253Z,0
2018-05-12T00:51:46.620Z,0
2018-05-12T00:52:47.988Z,0
2018-05-12T00:53:49.359Z,0
2018-05-12T00:54:50.731Z,0
2018-05-12T00:55:52.120Z,0
2018-05-12T00:56:53.485Z,0
2018-05-12T00:57:54.843Z,0
2018-05-12T00:58:56.220Z,0
2018-05-12T00:59:57.588Z,0
2018-05-12T01:00:58.955Z,0
2018-05-12T01:02:00.348Z,0
2018-05-12T01:03:01.725Z,0
2018-05-12T01:04:03.093Z,0
2018-05-12T01:05:04.458Z,0
2018-05-12T01:06:05.828Z,0
2018-05-12T01:07:07.198Z,0
2018-05-12T01:08:08.568Z,0
2018-05-12T01:09:09.931Z,0
2018-05-12T01:10:11.296Z,0
2018-05-12T01:11:12.674Z,0
2018-05-12T01:12:14.025Z,0
2018-05-12T01:13:15.397Z,0
2018-05-12T01:14:16.782Z,0
2018-05-12T01:15:18.156Z,0
2018-05-12T01:16:19.516Z,0
2018-05-12T01:17:20.882Z,0
2018-05-12T01:18:22.241Z,0
2018-05-12T01:19:23.610Z,0
2018-05-12T01:20:24.978Z,0
2018-05-12T01:21:26.386Z,0
2018-05-12T01:22:27.752Z,0
2018-05-12T01:23:29.132Z,0
2018-05-12T01:24:30.496Z,0
2018-05-12T01:25:31.863Z,0
2018-05-12T01:26:33.231Z,0
2018-05-12T01:27:34.597Z,0
2018-05-12T01:28:35.990Z,0
2018-05-12T01:29:37.360Z,0
2018-05-12T01:30:38.765Z,0
2018-05-12T01:31:40.138Z,0
2018-05-12T01:32:41.507Z,0
2018-05-12T01:33:42.873Z,0
2018-05-12T01:34:44.235Z,0
2018-05-12T01:35:45.603Z,0
2018-05-12T01:36:46.967Z,0
2018-05-12T01:37:48.333Z,0
2018-05-12T01:38:49.693Z,0
2018-05-12T01:39:51.060Z,0
2018-05-12T01:40:52.424Z,0
2018-05-12T01:41:53.786Z,0
2018-05-12T01:42:55.175Z,0
2018-05-12T01:43:56.546Z,0
2018-05-12T01:44:57.916Z,0
2018-05-12T01:45:59.282Z,0
2018-05-12T01:47:00.653Z,0
2018-05-12T01:48:02.020Z,0
2018-05-12T01:49:03.389Z,0
2018-05-12T01:50:04.757Z,0
2018-05-12T01:51:06.139Z,0
2018-05-12T01:52:07.504Z,0
2018-05-12T01:53:08.871Z,0
2018-05-12T01:54:10.234Z,0
2018-05-12T01:55:11.600Z,0
2018-05-12T01:56:12.967Z,0
2018-05-12T01:57:14.332Z,0
2018-05-12T01:58:15.704Z,0
2018-05-12T01:59:17.065Z,0
2018-05-12T02:00:18.436Z,0
2018-05-12T02:01:19.801Z,0
2018-05-12T02:02:21.176Z,0
2018-05-12T02:03:22.573Z,0
2018-05-12T02:04:23.943Z,0
2018-05-12T02:05:25.306Z,0
2018-05-12T02:06:26.667Z,0
2018-05-12T02:07:28.030Z,0
2018-05-12T02:08:29.393Z,0
2018-05-12T02:09:30.758Z,0
2018-05-12T02:10:32.125Z,0
2018-05-12T02:11:33.486Z,0
2018-05-12T02:12:34.845Z,0
2018-05-12T02:13:36.225Z,0
2018-05-12T02:14:37.594Z,0
2018-05-12T02:15:38.961Z,0
2018-05-12T02:16:40.385Z,0
2018-05-12T02:17:41.750Z,0
2018-05-12T02:18:43.113Z,0
2018-05-12T02:19:44.474Z,0
2018-05-12T02:20:45.836Z,0
2018-05-12T02:21:47.156Z,0
2018-05-12T02:22:48.515Z,0
2018-05-12T02:23:49.881Z,0
2018-05-12T02:24:51.240Z,0
2018-05-12T02:25:52.609Z,0
2018-05-12T02:26:53.976Z,0
2018-05-12T02:27:55.341Z,0
2018-05-12T02:28:56.759Z,0
2018-05-12T02:29:58.140Z,0
2018-05-12T02:30:59.512Z,0
2018-05-12T02:32:00.874Z,0
2018-05-12T02:33:02.243Z,0
2018-05-12T02:34:03.602Z,0
2018-05-12T02:35:04.967Z,0
2018-05-12T02:36:06.335Z,0
2018-05-12T02:37:07.707Z,0
2018-05-12T02:38:09.068Z,0
2018-05-12T02:39:10.443Z,0
2018-05-12T02:40:11.889Z,0
2018-05-12T02:41:13.254Z,0
2018-05-12T02:42:14.616Z,0
2018-05-12T02:43:15.986Z,0
2018-05-12T02:44:17.353Z,0
2018-05-12T02:45:18.714Z,0
2018-05-12T02:46:20.078Z,0
2018-05-12T02:47:21.441Z,0
2018-05-12T02:48:22.808Z,0
2018-05-12T02:49:24.176Z,0
2018-05-12T02:50:25.539Z,0
2018-05-12T02:51:26.977Z,0
2018-05-12T02:52:28.341Z,0
2018-05-12T02:53:29.711Z,0
2018-05-12T02:54:31.076Z,0
2018-05-12T02:55:32.458Z,0
2018-05-12T02:56:33.829Z,0
2018-05-12T02:57:35.198Z,0
2018-05-12T02:58:36.615Z,0
2018-05-12T02:59:37.981Z,0
2018-05-12T03:00:39.337Z,0
2018-05-12T03:01:40.703Z,0
2018-05-12T03:02:42.074Z,0
2018-05-12T03:03:43.442Z,0
2018-05-12T03:04:44.807Z,0
2018-05-12T03:05:46.181Z,0
2018-05-12T03:06:47.540Z,0
2018-05-12T03:07:48.905Z,0
2018-05-12T03:08:50.279Z,0
2018-05-12T03:09:51.636Z,0
2018-05-12T03:10:53.005Z,0
2018-05-12T03:11:54.376Z,0
2018-05-12T03:12:55.739Z,0
2018-05-12T03:13:57.111Z,0
2018-05-12T03:14:58.474Z,0
2018-05-12T03:15:59.847Z,0
2018-05-12T03:17:01.215Z,0
2018-05-12T03:18:02.585Z,0
2018-05-12T03:19:03.950Z,0
2018-05-12T03:20:05.320Z,0
2018-05-12T03:21:06.687Z,0
2018-05-12T03:22:08.045Z,0
2018-05-12T03:23:09.417Z,0
2018-05-12T03:24:10.784Z,0
2018-05-12T03:25:12.144Z,0
2018-05-12T03:26:13.512Z,0
2018-05-12T03:27:14.877Z,0
2018-05-12T03:28:16.235Z,0
2018-05-12T03:29:17.609Z,0
2018-05-12T03:30:18.969Z,0
2018-05-12T03:31:20.338Z,0
2018-05-12T03:32:21.701Z,0
2018-05-12T03:33:23.090Z,0
2018-05-12T03:34:24.464Z,5
2018-05-12T03:35:25.831Z,5
2018-05-12T03:36:27.197Z,5
2018-05-12T03:37:28.584Z,5
2018-05-12T03:38:29.943Z,5
2018-05-12T03:39:31.311Z,5
2018-05-12T03:40:32.670Z,5
2018-05-12T03:41:34.036Z,11
2018-05-12T03:42:35.408Z,11
2018-05-12T03:43:36.776Z,11
2018-05-12T03:44:38.137Z,11
2018-05-12T03:45:39.508Z,11
2018-05-12T03:46:40.871Z,16
2018-05-12T03:47:42.236Z,16
2018-05-12T03:48:43.600Z,16
2018-05-12T03:49:44.960Z,22
2018-05-12T03:50:46.333Z,22
2018-05-12T03:51:47.705Z,22
2018-05-12T03:52:49.071Z,22
2018-05-12T03:53:50.431Z,28
2018-05-12T03:54:51.813Z,28
2018-05-12T03:55:53.133Z,28
2018-05-12T03:56:54.512Z,33
2018-05-12T03:57:55.873Z,33
2018-05-12T03:58:57.258Z,39
2018-05-12T03:59:58.660Z,39
2018-05-12T04:01:00.021Z,39
2018-05-12T04:02:01.392Z,45
2018-05-12T04:03:02.764Z,45
2018-05-12T04:04:04.125Z,50
2018-05-12T04:05:05.504Z,50
2018-05-12T04:06:06.878Z,56
2018-05-12T04:07:08.249Z,56
2018-05-12T04:08:09.615Z,61
2018-05-12T04:09:10.947Z,61
2018-05-12T04:10:12.306Z,67
2018-05-12T04:11:13.676Z,67
2018-05-12T04:12:15.039Z,73
2018-05-12T04:13:16.403Z,73
2018-05-12T04:14:17.811Z,78
2018-05-12T04:15:19.183Z,78
2018-05-12T04:16:20.546Z,84
2018-05-12T04:17:21.919Z,90
2018-05-12T04:18:23.284Z,90
2018-05-12T04:19:24.658Z,95
2018-05-12T04:20:26.026Z,95
2018-05-12T04:21:27.410Z,101
2018-05-12T04:22:28.783Z,106
2018-05-12T04:23:30.177Z,106
2018-05-12T04:24:31.536Z,112
2018-05-12T04:25:32.911Z,112
2018-05-12T04:26:34.286Z,118
2018-05-12T04:27:35.652Z,123
2018-05-12T04:28:37.028Z,123
2018-05-12T04:29:38.398Z,129
2018-05-12T04:30:39.772Z,135
2018-05-12T04:31:41.142Z,140
2018-05-12T04:32:42.512Z,140
2018-05-12T04:33:43.882Z,140
2018-05-12T04:34:45.247Z,146
2018-05-12T04:35:46.623Z,151
2018-05-12T04:36:48.093Z,157
2018-05-12T04:37:49.332Z,163
2018-05-12T04:38:50.708Z,168
2018-05-12T04:39:52.073Z,174
2018-05-12T04:40:53.437Z,174
2018-05-12T04:41:54.805Z,180
2018-05-12T04:42:56.179Z,185
2018-05-12T04:43:57.618Z,191
2018-05-12T04:44:58.989Z,196
2018-05-12T04:46:00.292Z,196
2018-05-12T04:47:01.746Z,202
2018-05-12T04:48:03.117Z,208
2018-05-12T04:49:04.538Z,213
2018-05-12T04:50:05.905Z,213
2018-05-12T04:51:07.342Z,219
2018-05-12T04:52:08.722Z,225
2018-05-12T04:53:10.148Z,230
2018-05-12T04:54:11.534Z,236
2018-05-12T04:55:12.940Z,236
2018-05-12T04:56:14.311Z,241
2018-05-12T04:57:15.733Z,247
2018-05-12T04:58:17.145Z,253
2018-05-12T04:59:18.569Z,253
2018-05-12T05:00:19.938Z,258
2018-05-12T05:01:21.413Z,264
2018-05-12T05:02:22.810Z,270
2018-05-12T05:03:24.191Z,270
2018-05-12T05:04:25.560Z,275
2018-05-12T05:05:26.934Z,281
2018-05-12T05:06:28.334Z,292
2018-05-12T05:07:29.721Z,286
2018-05-12T05:08:31.106Z,292
2018-05-12T05:09:32.468Z,298
2018-05-12T05:10:33.859Z,303
2018-05-12T05:11:35.341Z,309
2018-05-12T05:12:36.824Z,309
2018-05-12T05:13:38.212Z,315
2018-05-12T05:14:39.585Z,326
2018-05-12T05:15:42.633Z,326
2018-05-12T05:16:47.811Z,331
2018-05-12T05:17:49.183Z,337
2018-05-12T05:18:50.547Z,343
2018-05-12T05:19:51.918Z,348
2018-05-12T05:20:53.345Z,354
2018-05-12T05:21:54.715Z,360
2018-05-12T05:22:56.084Z,365
2018-05-12T05:23:57.763Z,371
2018-05-12T05:24:59.566Z,376
2018-05-12T05:26:00.941Z,382
2018-05-12T05:27:02.334Z,382
2018-05-12T05:28:03.754Z,388
2018-05-12T05:29:05.169Z,393
2018-05-12T05:30:06.581Z,399
2018-05-12T05:31:07.961Z,405
2018-05-12T05:32:09.412Z,410
2018-05-12T05:33:10.793Z,416
2018-05-12T05:34:12.169Z,416
2018-05-12T05:35:13.620Z,427
2018-05-12T05:36:14.920Z,433
2018-05-12T05:37:16.300Z,438
2018-05-12T05:38:17.669Z,438
2018-05-12T05:39:19.045Z,444
2018-05-12T05:40:20.408Z,450
2018-05-12T05:41:21.791Z,455
2018-05-12T05:42:23.173Z,455
2018-05-12T05:43:24.534Z,455
2018-05-12T05:44:25.911Z,455
2018-05-12T05:45:27.285Z,461
2018-05-12T05:46:28.661Z,466
2018-05-12T05:47:30.036Z,472
2018-05-12T05:48:31.413Z,483
2018-05-12T05:49:32.784Z,534
2018-05-12T05:50:34.171Z,585
2018-05-12T05:51:35.540Z,607
2018-05-12T05:52:38.998Z,613
2018-05-12T05:53:41.307Z,618
2018-05-12T05:54:42.685Z,669
2018-05-12T05:55:44.176Z,765
2018-05-12T05:56:45.542Z,810
2018-05-12T05:57:46.983Z,871
2018-05-12T05:58:48.377Z,939
2018-05-12T05:59:49.770Z,1040
2018-05-12T06:00:51.138Z,1102
2018-05-12T06:01:52.518Z,1130
2018-05-12T06:02:53.902Z,1141
2018-05-12T06:03:55.272Z,1141
2018-05-12T06:04:56.646Z,1125
2018-05-12T06:05:58.020Z,1091
2018-05-12T06:06:59.409Z,1023
2018-05-12T06:08:00.747Z,810
2018-05-12T06:09:02.125Z,714
2018-05-12T06:10:03.495Z,601
2018-05-12T06:11:04.979Z,573
2018-05-12T06:12:06.353Z,562
2018-05-12T06:13:07.736Z,562
2018-05-12T06:14:09.131Z,585
2018-05-12T06:15:10.517Z,596
2018-05-12T06:16:11.889Z,635
2018-05-12T06:17:13.276Z,742
2018-05-12T06:18:14.670Z,714
2018-05-12T06:19:16.051Z,1209
2018-05-12T06:20:17.433Z,1085
2018-05-12T06:21:18.835Z,1203
2018-05-12T06:22:20.200Z,1282
2018-05-12T06:23:21.577Z,1209
2018-05-12T06:24:22.961Z,1276
2018-05-12T06:25:24.339Z,1327
2018-05-12T06:26:25.712Z,1186
2018-05-12T06:27:27.092Z,1158
2018-05-12T06:28:28.470Z,832
2018-05-12T06:29:29.849Z,945
2018-05-12T06:30:31.237Z,855
2018-05-12T06:31:32.612Z,1006
2018-05-12T06:32:33.998Z,804
2018-05-12T06:33:35.397Z,815
2018-05-12T06:34:36.745Z,736
2018-05-12T06:35:38.120Z,686
2018-05-12T06:36:39.521Z,658
2018-05-12T06:37:40.900Z,680
2018-05-12T06:38:42.282Z,579
2018-05-12T06:39:43.673Z,663
2018-05-12T06:40:45.051Z,1265
2018-05-12T06:41:46.441Z,1355
2018-05-12T06:42:47.824Z,1451
2018-05-12T06:43:49.209Z,1440
2018-05-12T06:44:50.599Z,1411
2018-05-12T06:45:51.973Z,1440
2018-05-12T06:46:53.353Z,1479
2018-05-12T06:47:54.739Z,1445
2018-05-12T06:48:56.115Z,1462
2018-05-12T06:49:57.496Z,1518
2018-05-12T06:50:58.992Z,1462
2018-05-12T06:52:40.656Z,1524
2018-05-12T06:53:41.947Z,1530
2018-05-12T06:54:43.319Z,1530
2018-05-12T06:55:44.697Z,1541
2018-05-12T06:56:46.093Z,1535
2018-05-12T06:57:47.489Z,1490
2018-05-12T06:58:48.892Z,1485
2018-05-12T06:59:50.531Z,1518
2018-05-12T07:00:52.162Z,1569
2018-05-12T07:01:53.517Z,1625
2018-05-12T07:02:54.930Z,1591
2018-05-12T07:03:56.317Z,1575
2018-05-12T07:04:57.741Z,1648
2018-05-12T07:05:59.180Z,1659
2018-05-12T07:07:00.656Z,1636
2018-05-12T07:08:02.080Z,1648
2018-05-12T07:09:03.466Z,1670
2018-05-12T07:10:04.851Z,1693
2018-05-12T07:11:06.247Z,1636
2018-05-12T07:12:07.652Z,1681
2018-05-12T07:13:09.028Z,1738
2018-05-12T07:14:10.421Z,1749
2018-05-12T07:15:11.816Z,1698
2018-05-12T07:16:13.192Z,1743
2018-05-12T07:17:14.573Z,1805
2018-05-12T07:18:15.957Z,1850
2018-05-12T07:19:17.346Z,1861
2018-05-12T07:20:18.722Z,1850
2018-05-12T07:21:20.116Z,1822
2018-05-12T07:22:21.500Z,1833
2018-05-12T07:23:22.932Z,1861
2018-05-12T07:24:24.309Z,1856
2018-05-12T07:25:25.710Z,1901
2018-05-12T07:26:27.106Z,1901
2018-05-12T07:27:28.492Z,1895
2018-05-12T07:28:29.884Z,1918
2018-05-12T07:29:31.274Z,1951
2018-05-12T07:30:32.652Z,1968
2018-05-12T07:31:34.037Z,1968
2018-05-12T07:32:35.430Z,2013
2018-05-12T07:33:36.825Z,2047
2018-05-12T07:34:38.228Z,2002
2018-05-12T07:35:39.618Z,1968
2018-05-12T07:36:40.999Z,1985
2018-05-12T07:37:42.387Z,2008
2018-05-12T07:38:43.773Z,1980
2018-05-12T07:39:45.160Z,1996
2018-05-12T07:40:46.545Z,2086
2018-05-12T07:41:47.946Z,2002
2018-05-12T07:42:49.379Z,2053
2018-05-12T07:43:50.776Z,2019
2018-05-12T07:44:52.174Z,2041
2018-05-12T07:45:53.574Z,2109
2018-05-12T07:46:55.016Z,2131
2018-05-12T07:47:56.444Z,2143
2018-05-12T07:48:57.828Z,2154
2018-05-12T07:49:59.227Z,2165
2018-05-12T07:51:00.602Z,2227
2018-05-12T07:52:02.003Z,2295
2018-05-12T07:53:03.390Z,2317
2018-05-12T07:54:04.780Z,2205
2018-05-12T07:55:06.188Z,2233
2018-05-12T07:56:07.579Z,2311
2018-05-12T07:57:08.974Z,2351
2018-05-12T07:58:10.392Z,2368
2018-05-12T07:59:11.782Z,2311
2018-05-12T08:00:13.169Z,2334
2018-05-12T08:01:14.557Z,2295
2018-05-12T08:02:17.145Z,2340
2018-05-12T08:03:18.508Z,2317
2018-05-12T08:04:20.136Z,2351
2018-05-12T08:05:21.953Z,2446
2018-05-12T08:06:23.352Z,2430
2018-05-12T08:07:24.851Z,2430
2018-05-12T08:08:26.257Z,2401
2018-05-12T08:09:27.673Z,2289
2018-05-12T08:10:29.073Z,2306
2018-05-12T08:11:30.467Z,2401
2018-05-12T08:12:31.863Z,2407
2018-05-12T08:13:33.256Z,2356
2018-05-12T08:14:34.648Z,2458
2018-05-12T08:15:36.141Z,2424
2018-05-12T08:16:38.194Z,2385
2018-05-12T08:17:40.243Z,2334
2018-05-12T08:18:41.738Z,2396
2018-05-12T08:19:43.209Z,2407
2018-05-12T08:20:44.603Z,2379
2018-05-12T08:21:45.993Z,2368
2018-05-12T08:22:47.406Z,2351
2018-05-12T08:23:48.785Z,2553
2018-05-12T08:24:50.182Z,2536
2018-05-12T08:25:51.628Z,2542
2018-05-12T08:26:53.142Z,2475
2018-05-12T08:27:54.426Z,2480
2018-05-12T08:28:55.839Z,2368
2018-05-12T08:29:57.270Z,2525
2018-05-12T08:30:58.669Z,2458
2018-05-12T08:32:00.077Z,2435
2018-05-12T08:33:01.485Z,2430
2018-05-12T08:34:02.878Z,2452
2018-05-12T08:35:04.260Z,2559
2018-05-12T08:36:05.655Z,2649
2018-05-12T08:37:07.048Z,2587
2018-05-12T08:38:08.451Z,2655
2018-05-12T08:39:09.855Z,2671
2018-05-12T08:40:11.249Z,2610
2018-05-12T08:41:12.633Z,2666
2018-05-12T08:42:14.025Z,2722
2018-05-12T08:43:15.410Z,2700
2018-05-12T08:44:16.803Z,2694
2018-05-12T08:45:18.192Z,2632
2018-05-12T08:46:19.588Z,2778
2018-05-12T08:47:20.980Z,2705
2018-05-12T08:48:22.446Z,2632
2018-05-12T08:49:23.761Z,2778
2018-05-12T08:50:25.157Z,2851
2018-05-12T08:51:26.546Z,2812
2018-05-12T08:52:27.954Z,2761
2018-05-12T08:53:29.333Z,2671
2018-05-12T08:54:30.739Z,2559
2018-05-12T08:55:32.130Z,2655
2018-05-12T08:56:33.523Z,2767
2018-05-12T08:57:34.917Z,2773
2018-05-12T08:58:36.310Z,2823
2018-05-12T08:59:37.703Z,2868
2018-05-12T09:00:39.093Z,2902
2018-05-12T09:01:40.507Z,2829
2018-05-12T09:02:41.898Z,2874
2018-05-12T09:03:43.280Z,2880
2018-05-12T09:04:44.682Z,2908
2018-05-12T09:05:46.104Z,2936
2018-05-12T09:06:48.763Z,2908
2018-05-12T09:07:50.175Z,2936
2018-05-12T09:08:51.573Z,3015
2018-05-12T09:09:52.959Z,2992
2018-05-12T09:10:54.366Z,2998
2018-05-12T09:11:55.772Z,3009
2018-05-12T09:12:57.178Z,2953
2018-05-12T09:13:58.560Z,2953
2018-05-12T09:15:00.010Z,2941
2018-05-12T09:16:01.423Z,3015
2018-05-12T09:17:02.819Z,3054
2018-05-12T09:18:04.243Z,3071
2018-05-12T09:19:05.758Z,3082
2018-05-12T09:20:07.152Z,3116
2018-05-12T09:21:08.634Z,3127
2018-05-12T09:22:10.038Z,3082
2018-05-12T09:23:11.533Z,3093
2018-05-12T09:24:12.929Z,3031
2018-05-12T09:25:14.328Z,2975
2018-05-12T09:26:15.719Z,3099
2018-05-12T09:27:17.119Z,3060
2018-05-12T09:28:18.510Z,3099
2018-05-12T09:29:19.957Z,3189
2018-05-12T09:30:21.354Z,3099
2018-05-12T09:31:22.810Z,3082
2018-05-12T09:32:24.206Z,3071
2018-05-12T09:33:25.607Z,2806
2018-05-12T09:34:27.010Z,2216
2018-05-12T09:35:28.394Z,2075
2018-05-12T09:36:29.796Z,2722
2018-05-12T09:37:31.202Z,3048
2018-05-12T09:38:32.600Z,3026
2018-05-12T09:39:34.000Z,3116
2018-05-12T09:40:35.392Z,3138
2018-05-12T09:41:36.860Z,3155
2018-05-12T09:42:38.327Z,3054
2018-05-12T09:43:39.624Z,3088
2018-05-12T09:44:41.077Z,3161
2018-05-12T09:45:42.475Z,3060
2018-05-12T09:46:43.874Z,3217
2018-05-12T09:47:45.293Z,3273
2018-05-12T09:48:46.689Z,3206
2018-05-12T09:49:48.557Z,3217
2018-05-12T09:50:49.948Z,3195
2018-05-12T09:51:51.358Z,3290
2018-05-12T09:52:52.759Z,3296
2018-05-12T09:53:54.172Z,3228
2018-05-12T09:54:55.568Z,3015
2018-05-12T09:55:56.977Z,3048
2018-05-12T09:56:58.370Z,3172
2018-05-12T09:57:59.772Z,1350
2018-05-12T09:59:01.239Z,2053
2018-05-12T10:00:02.632Z,2851
2018-05-12T10:01:04.016Z,3200
2018-05-12T10:02:05.404Z,3256
2018-05-12T10:03:06.857Z,3307
2018-05-12T10:04:08.255Z,3240
2018-05-12T10:05:09.653Z,3223
2018-05-12T10:06:11.116Z,3166
2018-05-12T10:07:12.512Z,2750
2018-05-12T10:08:13.905Z,2947
2018-05-12T10:09:15.304Z,3093
2018-05-12T10:10:16.695Z,3105
2018-05-12T10:11:18.090Z,3200
2018-05-12T10:12:19.489Z,3296
2018-05-12T10:13:20.923Z,3386
2018-05-12T10:14:22.307Z,3425
2018-05-12T10:15:23.731Z,3386
2018-05-12T10:16:25.099Z,3330
2018-05-12T10:17:26.504Z,3375
2018-05-12T10:18:27.911Z,3369
2018-05-12T10:19:29.323Z,3234
2018-05-12T10:20:30.767Z,3189
2018-05-12T10:21:32.163Z,3217
2018-05-12T10:22:33.517Z,3313
2018-05-12T10:23:34.935Z,3448
2018-05-12T10:24:36.334Z,3380
2018-05-12T10:25:37.735Z,3380
2018-05-12T10:26:39.142Z,3549
2018-05-12T10:27:40.552Z,3256
2018-05-12T10:28:42.016Z,2216
2018-05-12T10:29:43.318Z,1575
2018-05-12T10:30:44.722Z,3150
2018-05-12T10:31:46.111Z,3397
2018-05-12T10:32:47.511Z,1462
2018-05-12T10:33:48.906Z,1451
2018-05-12T10:34:50.303Z,1670
2018-05-12T10:35:51.700Z,3178
2018-05-12T10:36:53.095Z,3228
2018-05-12T10:37:54.505Z,3386
2018-05-12T10:38:55.963Z,3577
2018-05-12T10:39:57.249Z,3493
2018-05-12T10:40:58.647Z,3414
2018-05-12T10:42:00.039Z,3481
2018-05-12T10:43:01.451Z,3465
2018-05-12T10:44:02.854Z,3605
2018-05-12T10:45:04.245Z,3684
2018-05-12T10:46:05.665Z,3611
2018-05-12T10:47:07.077Z,3414
2018-05-12T10:48:08.472Z,3335
2018-05-12T10:49:09.868Z,3301
2018-05-12T10:50:11.313Z,3161
2018-05-12T10:51:12.720Z,3363
2018-05-12T10:52:14.117Z,3555
2018-05-12T10:53:15.519Z,3555
2018-05-12T10:54:16.914Z,3555
2018-05-12T10:55:18.319Z,3605
2018-05-12T10:56:19.722Z,3526
2018-05-12T10:57:21.121Z,3510
2018-05-12T10:58:22.525Z,3678
2018-05-12T10:59:23.927Z,3594
2018-05-12T11:00:25.328Z,3543
2018-05-12T11:01:26.736Z,3526
2018-05-12T11:02:28.134Z,3493
2018-05-12T11:03:29.562Z,1721
2018-05-12T11:04:30.979Z,1996
2018-05-12T11:05:32.378Z,3200
2018-05-12T11:06:33.771Z,3465
2018-05-12T11:07:35.175Z,3414
2018-05-12T11:08:36.575Z,3245
2018-05-12T11:09:38.067Z,3037
2018-05-12T11:10:39.393Z,2885
2018-05-12T11:11:40.786Z,3386
2018-05-12T11:12:42.200Z,3453
2018-05-12T11:13:43.588Z,1575
2018-05-12T11:14:44.977Z,1299
2018-05-12T11:15:46.386Z,2745
2018-05-12T11:16:47.795Z,2047
2018-05-12T11:17:49.194Z,2210
2018-05-12T11:18:50.584Z,3161
2018-05-12T11:19:51.984Z,1535
2018-05-12T11:20:53.376Z,3133
2018-05-12T11:21:54.814Z,3487
2018-05-12T11:22:56.134Z,3234
2018-05-12T11:23:57.549Z,3223
2018-05-12T11:24:58.939Z,1625
2018-05-12T11:26:00.333Z,1456
2018-05-12T11:27:01.740Z,1411
2018-05-12T11:28:03.159Z,3082
2018-05-12T11:29:04.549Z,3228
2018-05-12T11:30:05.942Z,3358
2018-05-12T11:31:07.380Z,3110
2018-05-12T11:32:08.838Z,3414
2018-05-12T11:33:10.178Z,3065
2018-05-12T11:34:11.585Z,3296
2018-05-12T11:35:12.984Z,1271
2018-05-12T11:36:14.371Z,1080
2018-05-12T11:37:15.772Z,933
2018-05-12T11:38:17.169Z,888
2018-05-12T11:39:18.571Z,967
2018-05-12T11:40:19.967Z,1282
2018-05-12T11:41:21.361Z,3611
2018-05-12T11:42:22.759Z,3684
2018-05-12T11:43:24.154Z,3521
2018-05-12T11:44:25.595Z,3448
2018-05-12T11:45:26.966Z,3391
2018-05-12T11:46:28.361Z,3532
2018-05-12T11:47:29.760Z,1940
2018-05-12T11:48:31.167Z,3459
2018-05-12T11:49:32.574Z,3543
2018-05-12T11:50:34.014Z,1929
2018-05-12T11:51:35.405Z,2340
2018-05-12T11:52:36.856Z,1164
2018-05-12T11:53:38.284Z,1096
2018-05-12T11:54:39.759Z,1175
2018-05-12T11:55:41.160Z,1552
2018-05-12T11:56:42.573Z,1164
2018-05-12T11:57:43.994Z,1220
2018-05-12T11:58:45.417Z,2064
2018-05-12T11:59:46.816Z,1231
2018-05-12T12:00:48.210Z,3408
2018-05-12T12:01:49.606Z,3521
2018-05-12T12:02:50.998Z,3526
2018-05-12T12:03:52.471Z,3476
2018-05-12T12:04:53.799Z,3661
2018-05-12T12:05:55.182Z,3673
2018-05-12T12:06:56.580Z,3656
2018-05-12T12:07:57.977Z,3600
2018-05-12T12:08:59.377Z,3436
2018-05-12T12:10:00.764Z,3459
2018-05-12T12:11:02.161Z,3470
2018-05-12T12:12:03.555Z,3380
2018-05-12T12:13:04.948Z,3296
2018-05-12T12:14:06.341Z,3397
2018-05-12T12:15:07.744Z,3352
2018-05-12T12:16:09.142Z,3262
2018-05-12T12:17:10.539Z,3144
2018-05-12T12:18:11.937Z,2998
2018-05-12T12:19:13.351Z,3183
2018-05-12T12:20:14.749Z,3251
2018-05-12T12:21:16.147Z,3211
2018-05-12T12:22:17.549Z,3082
2018-05-12T12:23:18.940Z,877
2018-05-12T12:24:20.328Z,815
2018-05-12T12:25:21.720Z,967
2018-05-12T12:26:23.130Z,3144
2018-05-12T12:27:24.528Z,3116
2018-05-12T12:28:25.925Z,3082
2018-05-12T12:29:27.315Z,2930
2018-05-12T12:30:28.709Z,2829
2018-05-12T12:31:30.102Z,2975
2018-05-12T12:32:32.636Z,2716
2018-05-12T12:33:34.788Z,2317
2018-05-12T12:34:36.257Z,2148
2018-05-12T12:35:37.651Z,2497
2018-05-12T12:36:39.055Z,2874
2018-05-12T12:37:40.444Z,2896
2018-05-12T12:38:41.836Z,2941
2018-05-12T12:39:43.233Z,2508
2018-05-12T12:40:44.641Z,1985
2018-05-12T12:41:46.036Z,1732
2018-05-12T12:42:48.037Z,1698
2018-05-12T12:43:49.440Z,1687
2018-05-12T12:44:50.858Z,1659
2018-05-12T12:45:52.243Z,1642
2018-05-12T12:46:53.674Z,1681
2018-05-12T12:47:55.070Z,1676
2018-05-12T12:48:56.480Z,1687
2018-05-12T12:49:57.878Z,1704
2018-05-12T12:50:59.279Z,1726
2018-05-12T12:52:00.670Z,1248
2018-05-12T12:53:02.071Z,956
2018-05-12T12:54:03.501Z,900
2018-05-12T12:55:04.895Z,866
2018-05-12T12:56:06.288Z,843
2018-05-12T12:57:07.769Z,928
2018-05-12T12:58:09.165Z,1119
2018-05-12T12:59:10.566Z,1001
2018-05-12T13:00:11.965Z,1265
2018-05-12T13:01:13.358Z,1850
2018-05-12T13:02:14.709Z,1856
2018-05-12T13:03:16.103Z,1811
2018-05-12T13:04:17.497Z,1108
2018-05-12T13:05:18.888Z,1355
2018-05-12T13:06:20.289Z,1935
2018-05-12T13:07:21.666Z,1957
2018-05-12T13:08:23.083Z,2013
2018-05-12T13:09:24.479Z,2036
2018-05-12T13:10:25.871Z,2041
2018-05-12T13:11:27.273Z,2013
2018-05-12T13:12:28.669Z,1985
2018-05-12T13:13:30.067Z,2008
2018-05-12T13:14:31.455Z,1794
2018-05-12T13:15:32.857Z,1513
2018-05-12T13:16:34.252Z,1822
2018-05-12T13:17:36.584Z,1788
2018-05-12T13:18:38.011Z,1850
2018-05-12T13:19:39.412Z,1895
2018-05-12T13:20:40.811Z,1906
2018-05-12T13:21:42.200Z,1895
2018-05-12T13:22:43.592Z,1923
2018-05-12T13:23:44.991Z,1946
2018-05-12T13:24:46.380Z,1912
2018-05-12T13:25:47.779Z,1811
2018-05-12T13:26:49.174Z,1918
2018-05-12T13:27:50.668Z,1906
2018-05-12T13:28:51.925Z,1890
2018-05-12T13:29:53.404Z,1878
2018-05-12T13:30:54.761Z,1811
2018-05-12T13:31:56.157Z,1788
2018-05-12T13:32:57.577Z,1850
2018-05-12T13:33:58.969Z,1906
2018-05-12T13:35:00.373Z,1935
2018-05-12T13:36:01.769Z,1940
2018-05-12T13:37:03.166Z,1901
2018-05-12T13:38:04.568Z,1867
2018-05-12T13:39:05.972Z,1878
2018-05-12T13:40:07.442Z,1839
2018-05-12T13:41:08.860Z,1839
2018-05-12T13:42:10.244Z,1856
2018-05-12T13:43:11.683Z,1833
2018-05-12T13:44:13.075Z,1828
2018-05-12T13:45:14.425Z,1783
2018-05-12T13:46:15.815Z,1721
2018-05-12T13:47:17.210Z,1698
2018-05-12T13:48:18.610Z,1670
2018-05-12T13:49:20.008Z,1636
2018-05-12T13:50:21.425Z,1625
2018-05-12T13:51:22.808Z,1586
2018-05-12T13:52:24.206Z,1558
2018-05-12T13:53:25.603Z,1524
2018-05-12T13:54:26.992Z,1575
2018-05-12T13:55:28.382Z,1575
2018-05-12T13:56:29.771Z,1575
2018-05-12T13:57:31.185Z,1614
2018-05-12T13:58:32.575Z,1625
2018-05-12T13:59:33.969Z,1490
2018-05-12T14:00:35.391Z,1597
2018-05-12T14:01:36.815Z,1648
2018-05-12T14:02:38.207Z,1558
2018-05-12T14:03:39.617Z,1591
2018-05-12T14:04:41.021Z,1738
2018-05-12T14:05:42.422Z,1816
2018-05-12T14:06:43.805Z,1985